Time;durP1;ratioP1;P1;durP2;ratioP2;P2;SDS_P1;SDS_P2;PMS_P1;PMS_P2;Temp;Humidity;BMP_temperature;BMP_pressure;BME280_temperature;BME280_humidity;BME280_pressure;Samples;Min_cycle;Max_cycle;Signal;HPM_P1;HPM_P2
2022/04/08 00:01:03;;;;;;;4.63;1.53;;;20.10;46.60;;;;;;5040619;27;88519;-70
2022/04/08 00:03:31;;;;;;;3.63;1.13;;;20.10;46.00;;;;;;5040513;28;90721;-71
2022/04/08 00:06:02;;;;;;;6.13;1.70;;;20.10;46.60;;;;;;5040270;28;93669;-72
2022/04/08 00:08:30;;;;;;;5.37;1.83;;;20.00;45.80;;;;;;5040777;28;88443;-70
2022/04/08 00:10:58;;;;;;;4.33;2.17;;;20.10;45.90;;;;;;5040227;28;88448;-71
2022/04/08 00:13:25;;;;;;;6.67;1.63;;;20.00;45.80;;;;;;5039888;28;90130;-71
2022/04/08 00:15:54;;;;;;;2.43;1.23;;;20.00;45.80;;;;;;5039937;28;88460;-70
2022/04/08 00:18:21;;;;;;;4.70;2.13;;;20.00;45.80;;;;;;5040153;27;88868;-70
2022/04/08 00:20:49;;;;;;;3.80;1.60;;;20.00;45.80;;;;;;5039028;28;88884;-71
2022/04/08 00:23:19;;;;;;;2.13;1.47;;;20.00;45.80;;;;;;5040091;27;90846;-69
2022/04/08 00:25:47;;;;;;;3.97;1.80;;;20.00;45.80;;;;;;5036815;28;89178;-71
2022/04/08 00:28:15;;;;;;;3.07;1.57;;;20.00;45.80;;;;;;5040179;28;91058;-71
2022/04/08 00:30:43;;;;;;;4.20;1.30;;;20.00;46.40;;;;;;5040712;28;88446;-70
2022/04/08 00:33:11;;;;;;;2.53;1.50;;;20.00;45.70;;;;;;5039878;27;91074;-71
2022/04/08 00:35:39;;;;;;;4.07;1.80;;;20.00;45.70;;;;;;5039333;27;89520;-70
2022/04/08 00:38:10;;;;;;;2.63;1.30;;;20.00;45.70;;;;;;5039002;28;89747;-71
2022/04/08 00:40:39;;;;;;;3.97;1.43;;;19.90;45.60;;;;;;5039549;28;88653;-70
2022/04/08 00:43:12;;;;;;;2.50;1.30;;;19.90;45.60;;;;;;5038064;27;89874;-70
2022/04/08 00:45:40;;;;;;;2.07;1.00;;;19.90;45.60;;;;;;5039823;28;93214;-70
2022/04/08 00:48:08;;;;;;;3.30;1.20;;;19.90;45.60;;;;;;5039915;27;89348;-71
2022/04/08 00:50:36;;;;;;;3.87;2.03;;;19.90;45.60;;;;;;5040160;28;88408;-70
2022/04/08 00:53:05;;;;;;;2.80;1.40;;;19.90;45.50;;;;;;5041281;27;90221;-70
2022/04/08 00:55:33;;;;;;;4.67;1.67;;;19.90;45.60;;;;;;5043349;28;89031;-70
2022/04/08 00:58:03;;;;;;;3.53;1.30;;;19.90;45.50;;;;;;5043526;28;88364;-70
2022/04/08 01:00:33;;;;;;;5.00;1.50;;;19.90;45.50;;;;;;5044272;28;88566;-70
2022/04/08 01:03:01;;;;;;;1.83;1.33;;;19.90;45.50;;;;;;5043857;28;90681;-70
2022/04/08 01:05:29;;;;;;;3.23;1.23;;;19.90;45.50;;;;;;5043232;28;90020;-69
2022/04/08 01:07:57;;;;;;;2.40;1.60;;;19.90;45.50;;;;;;5043338;28;88391;-70
2022/04/08 01:10:26;;;;;;;3.93;1.40;;;19.90;45.50;;;;;;5039168;28;90394;-70
2022/04/08 01:12:53;;;;;;;3.37;1.37;;;19.90;45.50;;;;;;5037581;28;90713;-70
2022/04/08 01:15:25;;;;;;;2.93;1.50;;;19.90;45.50;;;;;;5043853;28;89977;-70
2022/04/08 01:17:53;;;;;;;1.90;1.30;;;19.90;45.50;;;;;;5044354;28;88822;-70
2022/04/08 01:20:21;;;;;;;1.87;1.23;;;20.00;45.60;;;;;;5043026;28;88568;-70
2022/04/08 01:22:49;;;;;;;4.43;1.27;;;19.60;45.30;;;;;;5043089;28;90562;-69
2022/04/08 01:25:18;;;;;;;3.77;1.20;;;19.90;45.50;;;;;;5041682;28;90088;-70
2022/04/08 01:27:46;;;;;;;3.10;1.23;;;19.80;45.50;;;;;;5041627;27;89188;-70
2022/04/08 01:30:16;;;;;;;1.43;1.33;;;19.90;45.50;;;;;;5026528;28;88464;-70
2022/04/08 01:32:44;;;;;;;2.33;1.13;;;19.90;45.50;;;;;;5042097;27;90580;-70
2022/04/08 01:35:13;;;;;;;1.63;1.10;;;19.80;45.50;;;;;;5033212;28;88975;-70
2022/04/08 01:37:41;;;;;;;1.60;1.23;;;19.80;45.50;;;;;;5042487;28;88380;-71
2022/04/08 01:40:10;;;;;;;1.07;0.80;;;19.80;45.50;;;;;;5042401;28;88574;-70
2022/04/08 01:42:39;;;;;;;1.60;1.00;;;19.80;45.50;;;;;;5042167;28;89426;-70
2022/04/08 01:45:10;;;;;;;2.80;1.23;;;19.80;45.50;;;;;;5041557;28;88931;-71
2022/04/08 01:47:38;;;;;;;2.30;1.13;;;19.80;45.50;;;;;;5046335;27;88450;-72
2022/04/08 01:50:09;;;;;;;2.07;0.97;;;19.80;45.50;;;;;;5045518;27;88808;-71
2022/04/08 01:52:38;;;;;;;1.27;1.17;;;19.80;45.50;;;;;;5042219;28;89286;-72
2022/04/08 01:55:06;;;;;;;1.50;0.77;;;19.80;45.50;;;;;;5041210;28;90096;-72
2022/04/08 01:57:34;;;;;;;1.93;0.83;;;19.70;45.40;;;;;;5042340;28;88751;-72
2022/04/08 02:00:04;;;;;;;3.43;1.00;;;19.70;45.40;;;;;;5041465;28;88412;-71
2022/04/08 02:02:32;;;;;;;2.30;1.00;;;19.70;45.40;;;;;;5041623;28;93270;-69
2022/04/08 02:05:00;;;;;;;1.87;1.00;;;19.70;45.40;;;;;;5040508;27;89626;-71
2022/04/08 02:07:28;;;;;;;4.87;1.07;;;19.70;45.40;;;;;;5042021;27;89018;-70
2022/04/08 02:09:56;;;;;;;1.80;1.00;;;19.70;45.40;;;;;;5042654;28;88441;-71
2022/04/08 02:12:24;;;;;;;3.23;1.10;;;19.70;45.40;;;;;;5041323;28;90800;-71
2022/04/08 02:14:54;;;;;;;2.43;1.07;;;19.70;45.40;;;;;;5041085;27;89307;-71
2022/04/08 02:17:25;;;;;;;2.60;1.00;;;19.70;45.40;;;;;;5025767;28;92290;-70
2022/04/08 02:19:53;;;;;;;2.00;0.90;;;19.70;45.40;;;;;;5042371;28;88295;-71
2022/04/08 02:22:21;;;;;;;1.43;0.93;;;19.70;45.40;;;;;;5040435;28;89764;-70
2022/04/08 02:24:50;;;;;;;1.67;1.37;;;19.70;45.40;;;;;;5041750;28;89118;-70
2022/04/08 02:27:19;;;;;;;2.60;1.30;;;19.70;45.40;;;;;;5041158;27;88940;-70
2022/04/08 02:29:47;;;;;;;2.53;1.30;;;19.70;45.30;;;;;;5040798;28;88465;-71
2022/04/08 02:32:14;;;;;;;1.70;1.13;;;19.70;45.30;;;;;;5041759;28;89553;-70
2022/04/08 02:34:44;;;;;;;4.17;1.50;;;19.70;45.90;;;;;;5041848;27;89196;-70
2022/04/08 02:37:15;;;;;;;3.23;1.20;;;19.70;45.30;;;;;;5041128;27;88823;-71
2022/04/08 02:39:43;;;;;;;2.30;0.83;;;19.70;45.30;;;;;;5041172;28;88470;-71
2022/04/08 02:42:11;;;;;;;2.43;1.10;;;19.70;45.30;;;;;;5040793;28;89386;-71
2022/04/08 02:44:39;;;;;;;3.57;0.97;;;19.70;45.30;;;;;;5042086;28;89714;-71
2022/04/08 02:47:09;;;;;;;3.40;1.17;;;19.70;45.30;;;;;;5041277;28;88988;-71
2022/04/08 02:49:38;;;;;;;2.47;1.17;;;19.70;45.30;;;;;;5042546;28;88427;-68
2022/04/08 02:52:08;;;;;;;3.83;1.33;;;19.60;45.20;;;;;;5054165;27;90704;-68
2022/04/08 02:54:36;;;;;;;1.37;1.07;;;19.60;45.20;;;;;;5041351;27;89226;-68
2022/04/08 02:57:04;;;;;;;2.03;1.33;;;19.60;45.20;;;;;;5042187;28;88452;-69
2022/04/08 02:59:33;;;;;;;1.60;1.00;;;19.60;45.20;;;;;;5041778;28;88379;-68
2022/04/08 03:02:01;;;;;;;3.87;0.70;;;19.60;45.20;;;;;;5040856;28;92551;-70
2022/04/08 03:04:29;;;;;;;3.13;0.93;;;19.60;45.20;;;;;;5041532;27;89823;-70
2022/04/08 03:06:58;;;;;;;1.47;0.80;;;19.60;45.20;;;;;;5040473;27;88645;-71
2022/04/08 03:09:28;;;;;;;2.30;0.87;;;19.60;45.20;;;;;;5040345;28;88657;-71
2022/04/08 03:11:56;;;;;;;0.77;0.77;;;19.50;45.10;;;;;;5040969;27;90119;-73
2022/04/08 03:14:24;;;;;;;2.37;0.80;;;19.60;45.20;;;;;;5040854;28;89865;-73
2022/04/08 03:16:53;;;;;;;2.17;1.13;;;19.50;45.10;;;;;;5042655;27;88398;-73
2022/04/08 03:19:21;;;;;;;1.00;0.83;;;19.50;45.10;;;;;;5042372;28;88553;-73
2022/04/08 03:21:50;;;;;;;2.07;1.40;;;19.50;45.10;;;;;;5041576;28;90140;-72
2022/04/08 03:24:19;;;;;;;1.13;0.87;;;19.50;45.10;;;;;;5037852;28;90401;-72
2022/04/08 03:26:49;;;;;;;1.40;0.90;;;19.50;45.10;;;;;;5041308;28;89736;-73
2022/04/08 03:29:19;;;;;;;2.23;0.90;;;19.50;45.10;;;;;;5041432;27;88233;-73
2022/04/08 03:31:47;;;;;;;2.17;1.27;;;19.50;45.10;;;;;;5041501;28;88952;-73
2022/04/08 03:34:16;;;;;;;2.10;0.80;;;19.50;45.10;;;;;;5040712;28;89005;-72
2022/04/08 03:36:45;;;;;;;1.70;0.77;;;19.50;45.10;;;;;;5042307;28;88835;-72
2022/04/08 03:39:14;;;;;;;1.70;0.90;;;19.50;45.20;;;;;;5042647;27;88766;-72
2022/04/08 03:41:43;;;;;;;2.07;0.73;;;19.50;45.10;;;;;;5042211;27;89232;-72
2022/04/08 03:44:12;;;;;;;1.10;0.87;;;19.50;45.10;;;;;;5040578;27;88489;-73
2022/04/08 03:46:41;;;;;;;0.67;0.63;;;19.50;45.10;;;;;;5041001;27;88930;-72
2022/04/08 03:49:14;;;;;;;0.70;0.70;;;19.50;45.10;;;;;;5040761;27;88803;-72
2022/04/08 03:51:42;;;;;;;2.13;0.90;;;19.50;45.10;;;;;;5040609;28;90683;-73
2022/04/08 03:54:18;;;;;;;2.03;0.83;;;19.50;45.10;;;;;;5039957;27;90194;-73
2022/04/08 03:56:46;;;;;;;4.93;0.80;;;19.50;45.10;;;;;;5039744;28;89265;-73
2022/04/08 03:59:16;;;;;;;1.27;0.93;;;19.50;45.10;;;;;;5041173;28;88505;-73
2022/04/08 04:01:46;;;;;;;1.33;0.90;;;19.50;45.10;;;;;;5042786;27;88998;-73
2022/04/08 04:04:15;;;;;;;0.80;0.60;;;19.50;45.10;;;;;;5041284;28;88795;-73
2022/04/08 04:06:43;;;;;;;1.43;0.80;;;19.50;45.10;;;;;;5041066;28;88390;-73
2022/04/08 04:09:11;;;;;;;1.17;0.50;;;19.50;45.10;;;;;;5040433;27;88598;-72
2022/04/08 04:11:39;;;;;;;1.30;1.00;;;19.50;45.10;;;;;;5041241;27;89536;-73
2022/04/08 04:14:07;;;;;;;0.70;0.50;;;19.40;45.00;;;;;;5039116;28;90069;-72
2022/04/08 04:16:37;;;;;;;1.40;0.70;;;19.40;45.10;;;;;;5038087;28;88400;-72
2022/04/08 04:19:07;;;;;;;1.70;0.60;;;19.40;45.10;;;;;;5039789;28;88412;-72
2022/04/08 04:21:35;;;;;;;0.80;0.60;;;19.40;45.10;;;;;;5040285;28;90682;-72
2022/04/08 04:24:03;;;;;;;2.90;0.67;;;19.40;45.10;;;;;;5038915;27;89157;-73
2022/04/08 04:26:31;;;;;;;1.20;0.60;;;19.40;45.10;;;;;;5037944;27;88944;-72
2022/04/08 04:28:59;;;;;;;0.67;0.63;;;19.40;45.10;;;;;;5037468;28;89063;-72
2022/04/08 04:31:27;;;;;;;2.17;1.23;;;19.40;45.10;;;;;;5037070;28;89845;-72
2022/04/08 04:33:57;;;;;;;1.33;0.70;;;19.40;45.10;;;;;;5038682;28;89307;-72
2022/04/08 04:36:25;;;;;;;1.53;1.13;;;19.40;45.10;;;;;;5039115;28;89774;-72
2022/04/08 04:38:53;;;;;;;0.63;0.60;;;19.40;45.10;;;;;;5039618;28;88407;-72
2022/04/08 04:41:21;;;;;;;2.47;1.13;;;19.40;45.10;;;;;;5039543;28;93512;-72
2022/04/08 04:43:49;;;;;;;0.90;0.80;;;19.30;45.00;;;;;;5038867;27;88774;-72
2022/04/08 04:46:17;;;;;;;2.00;0.70;;;19.30;45.10;;;;;;5039321;28;88755;-73
2022/04/08 04:48:45;;;;;;;2.23;1.10;;;19.30;45.10;;;;;;5040741;27;88687;-72
2022/04/08 04:51:16;;;;;;;2.23;1.03;;;19.30;45.10;;;;;;5039450;28;89371;-72
2022/04/08 04:53:44;;;;;;;3.17;1.20;;;19.30;45.10;;;;;;5040485;28;89584;-72
2022/04/08 04:56:12;;;;;;;3.03;1.07;;;19.30;45.10;;;;;;5039352;27;88295;-73
2022/04/08 04:58:40;;;;;;;1.67;1.17;;;19.30;45.10;;;;;;5039905;27;88650;-73
2022/04/08 05:01:08;;;;;;;1.17;0.90;;;19.30;45.10;;;;;;5040864;28;88985;-72
2022/04/08 05:03:40;;;;;;;2.23;1.13;;;19.30;45.10;;;;;;5039341;27;91200;-73
2022/04/08 05:06:08;;;;;;;1.17;1.07;;;19.30;45.10;;;;;;5038979;27;88598;-72
2022/04/08 05:08:38;;;;;;;1.57;0.90;;;19.30;45.10;;;;;;5039081;28;88546;-69
2022/04/08 05:11:05;;;;;;;1.10;1.00;;;19.30;45.10;;;;;;5039672;28;90171;-70
2022/04/08 05:13:34;;;;;;;3.75;1.88;;;19.30;45.20;;;;;;5038364;27;88955;-64
2022/04/08 05:16:02;;;;;;;4.27;1.47;;;19.10;45.80;;;;;;5038957;28;89510;-66
2022/04/08 05:18:30;;;;;;;2.87;1.50;;;19.40;45.50;;;;;;5039598;27;88655;-67
2022/04/08 05:20:58;;;;;;;3.30;1.30;;;19.50;45.50;;;;;;5039046;27;90773;-68
2022/04/08 05:23:29;;;;;;;2.57;1.60;;;19.60;45.60;;;;;;5038779;27;90142;-69
2022/04/08 05:25:58;;;;;;;1.67;1.37;;;19.60;45.60;;;;;;5038005;28;88923;-67
2022/04/08 05:28:26;;;;;;;2.97;1.97;;;19.60;45.60;;;;;;5038606;28;89810;-66
2022/04/08 05:30:54;;;;;;;3.50;1.53;;;19.50;45.60;;;;;;5038265;28;90818;-66
2022/04/08 05:33:22;;;;;;;3.50;1.70;;;19.50;45.70;;;;;;5035758;28;89248;-67
2022/04/08 05:35:51;;;;;;;1.87;1.57;;;19.50;45.80;;;;;;5038077;28;91140;-67
2022/04/08 05:38:19;;;;;;;1.77;1.53;;;19.50;46.00;;;;;;5039001;28;90444;-66
2022/04/08 05:40:49;;;;;;;5.73;1.77;;;19.50;46.10;;;;;;5041363;28;92530;-67
2022/04/08 05:43:19;;;;;;;3.87;1.20;;;19.50;46.20;;;;;;5039289;28;89852;-66
2022/04/08 05:45:47;;;;;;;3.20;1.23;;;19.50;46.40;;;;;;5041730;27;88857;-67
2022/04/08 05:48:15;;;;;;;2.00;1.13;;;19.50;46.50;;;;;;5041853;27;88498;-66
2022/04/08 05:50:43;;;;;;;4.73;1.37;;;19.50;46.50;;;;;;5042460;28;90665;-67
2022/04/08 05:53:11;;;;;;;2.90;1.50;;;19.50;46.60;;;;;;5039465;28;90121;-66
2022/04/08 05:55:59;;;;;;;1.20;0.73;;;19.50;46.90;;;;;;5040554;28;88351;-66
2022/04/08 05:58:29;;;;;;;2.87;1.23;;;19.50;46.70;;;;;;5041661;28;88502;-66
2022/04/08 06:00:57;;;;;;;7.57;1.50;;;19.50;46.90;;;;;;5042030;28;90608;-66
2022/04/08 06:03:25;;;;;;;3.30;1.50;;;19.50;46.90;;;;;;5041840;27;89963;-66
2022/04/08 06:05:53;;;;;;;2.47;1.00;;;19.50;47.00;;;;;;5041809;28;89831;-66
2022/04/08 06:08:21;;;;;;;2.57;1.50;;;19.50;47.10;;;;;;5042128;28;88419;-66
2022/04/08 06:10:51;;;;;;;1.30;1.10;;;19.50;47.20;;;;;;5042384;28;89330;-66
2022/04/08 06:13:24;;;;;;;2.03;1.30;;;19.50;47.30;;;;;;5042113;27;89112;-66
2022/04/08 06:15:54;;;;;;;1.03;0.70;;;19.50;47.30;;;;;;5041983;27;88851;-66
2022/04/08 06:18:22;;;;;;;7.07;1.50;;;19.50;47.40;;;;;;5042012;27;88641;-65
2022/04/08 06:20:50;;;;;;;1.70;1.00;;;19.50;47.50;;;;;;5041569;28;90426;-66
2022/04/08 06:23:18;;;;;;;2.00;0.63;;;19.50;47.60;;;;;;5040915;28;90086;-66
2022/04/08 06:25:46;;;;;;;2.47;0.73;;;19.50;47.70;;;;;;5041859;28;89834;-64
2022/04/08 06:28:14;;;;;;;1.27;0.73;;;19.60;47.90;;;;;;5041746;28;88599;-66
2022/04/08 06:30:42;;;;;;;1.30;0.97;;;19.60;47.90;;;;;;5041905;28;90103;-66
2022/04/08 06:33:11;;;;;;;2.67;1.20;;;19.70;48.00;;;;;;5041591;28;90116;-66
2022/04/08 06:35:39;;;;;;;4.00;1.03;;;19.80;48.20;;;;;;5040503;28;88844;-63
2022/04/08 06:38:08;;;;;;;3.60;1.10;;;19.90;48.20;;;;;;5040918;28;88620;-65
2022/04/08 06:40:38;;;;;;;2.10;0.90;;;20.10;48.30;;;;;;5041161;28;90697;-66
2022/04/08 06:43:06;;;;;;;0.93;0.90;;;20.40;48.50;;;;;;5040939;28;93662;-66
2022/04/08 06:45:35;;;;;;;1.33;0.97;;;20.60;48.50;;;;;;5041545;28;88396;-66
2022/04/08 06:48:03;;;;;;;1.90;0.90;;;20.90;48.60;;;;;;5040043;27;88636;-66
2022/04/08 06:50:33;;;;;;;2.60;1.10;;;21.10;48.50;;;;;;5040673;27;91023;-67
2022/04/08 06:53:01;;;;;;;1.93;1.10;;;21.40;48.60;;;;;;5040277;27;92992;-71
2022/04/08 06:55:29;;;;;;;1.17;0.77;;;21.60;48.50;;;;;;5038589;27;88674;-66
2022/04/08 06:57:58;;;;;;;1.17;0.80;;;21.90;48.50;;;;;;5040224;28;88506;-67
2022/04/08 07:00:26;;;;;;;2.83;1.10;;;22.10;48.50;;;;;;5040597;28;88515;-67
2022/04/08 07:02:54;;;;;;;2.13;0.87;;;22.30;48.40;;;;;;5040389;28;88879;-67
2022/04/08 07:05:25;;;;;;;4.37;1.00;;;22.50;48.40;;;;;;5041185;27;88582;-67
2022/04/08 07:07:54;;;;;;;1.20;1.00;;;22.70;48.40;;;;;;5040755;28;89127;-67
2022/04/08 07:10:22;;;;;;;2.07;1.10;;;22.80;48.50;;;;;;5039438;28;90712;-67
2022/04/08 07:12:50;;;;;;;4.87;0.97;;;22.90;48.40;;;;;;5039304;28;92578;-67
2022/04/08 07:15:18;;;;;;;2.00;0.50;;;22.90;48.40;;;;;;5039683;28;89682;-67
2022/04/08 07:17:46;;;;;;;2.47;0.53;;;22.90;48.40;;;;;;5040698;28;88467;-66
2022/04/08 07:20:16;;;;;;;1.57;0.80;;;23.00;48.60;;;;;;5040935;28;90030;-66
2022/04/08 07:22:45;;;;;;;1.07;0.83;;;23.00;48.50;;;;;;5039918;28;90325;-67
2022/04/08 07:25:15;;;;;;;4.07;0.90;;;23.10;48.50;;;;;;5039785;28;88522;-68
2022/04/08 07:27:44;;;;;;;2.17;0.70;;;23.10;48.50;;;;;;5029375;28;88486;-68
2022/04/08 07:30:12;;;;;;;1.07;0.73;;;23.20;48.50;;;;;;5039167;27;92007;-68
2022/04/08 07:32:40;;;;;;;0.90;0.70;;;23.30;48.30;;;;;;5040593;28;89244;-68
2022/04/08 07:35:09;;;;;;;1.13;0.80;;;23.40;48.30;;;;;;5039207;28;91279;-68
2022/04/08 07:37:38;;;;;;;1.93;0.70;;;23.40;48.10;;;;;;5039645;28;88589;-69
2022/04/08 07:40:07;;;;;;;0.67;0.67;;;23.50;48.70;;;;;;5038793;28;90712;-68
2022/04/08 07:42:36;;;;;;;1.73;0.80;;;23.60;47.80;;;;;;5039514;28;90235;-67
2022/04/08 07:45:05;;;;;;;0.60;0.43;;;23.60;47.60;;;;;;5040019;27;88891;-68
2022/04/08 07:47:33;;;;;;;1.30;0.67;;;23.70;47.50;;;;;;5039905;27;88622;-68
2022/04/08 07:50:02;;;;;;;2.93;0.67;;;23.80;47.40;;;;;;5039496;28;91130;-69
2022/04/08 07:52:30;;;;;;;0.80;0.53;;;23.90;47.30;;;;;;5040223;28;90129;-70
2022/04/08 07:54:58;;;;;;;12.43;0.77;;;24.00;47.10;;;;;;5040110;27;89235;-69
2022/04/08 07:57:27;;;;;;;0.90;0.53;;;24.00;47.00;;;;;;5039944;27;88495;-70
2022/04/08 07:59:56;;;;;;;2.53;0.70;;;24.10;46.90;;;;;;5039622;28;90114;-69
2022/04/08 08:02:26;;;;;;;2.73;0.43;;;24.20;46.80;;;;;;5038652;28;89992;-69
2022/04/08 08:04:54;;;;;;;1.13;0.67;;;24.20;46.60;;;;;;5039298;28;89794;-69
2022/04/08 08:07:22;;;;;;;1.30;0.40;;;24.30;46.50;;;;;;5039801;28;88341;-69
2022/04/08 08:09:50;;;;;;;0.53;0.53;;;24.40;46.40;;;;;;5039783;27;89750;-69
2022/04/08 08:12:23;;;;;;;1.50;0.60;;;24.50;46.30;;;;;;5039719;28;90037;-69
2022/04/08 08:14:54;;;;;;;0.90;0.70;;;24.60;46.20;;;;;;5039990;28;88371;-69
2022/04/08 08:17:23;;;;;;;1.47;0.40;;;24.70;46.10;;;;;;5038689;27;88499;-70
2022/04/08 08:19:51;;;;;;;2.57;0.80;;;24.80;46.10;;;;;;5039028;28;89859;-69
2022/04/08 08:22:24;;;;;;;1.40;0.60;;;24.80;46.00;;;;;;5038596;27;89919;-69
2022/04/08 08:24:52;;;;;;;0.63;0.53;;;24.80;46.00;;;;;;5039262;28;88804;-69
2022/04/08 08:27:20;;;;;;;0.63;0.30;;;24.80;46.00;;;;;;5036947;28;88517;-69
2022/04/08 08:29:48;;;;;;;0.37;0.30;;;24.80;46.00;;;;;;5037844;28;90609;-69
2022/04/08 08:32:16;;;;;;;0.87;0.60;;;24.80;46.00;;;;;;5039588;28;89709;-74
2022/04/08 08:34:46;;;;;;;0.83;0.63;;;24.70;45.90;;;;;;5039953;28;88519;-68
2022/04/08 08:37:14;;;;;;;1.23;0.40;;;24.70;46.00;;;;;;5039009;28;88844;-69
2022/04/08 08:39:42;;;;;;;0.87;0.60;;;24.60;45.90;;;;;;5039107;28;90653;-70
2022/04/08 08:42:10;;;;;;;0.63;0.60;;;24.60;45.90;;;;;;5040128;27;91267;-78
2022/04/08 08:44:39;;;;;;;0.80;0.50;;;24.50;46.00;;;;;;5041282;28;88440;-78
2022/04/08 08:47:11;;;;;;;1.63;0.97;;;24.40;45.90;;;;;;5040401;28;88427;-78
2022/04/08 08:49:39;;;;;;;1.77;0.40;;;24.30;45.90;;;;;;5039714;28;89809;-77
2022/04/08 08:52:09;;;;;;;0.40;0.40;;;24.30;45.90;;;;;;5038898;28;90120;-78
2022/04/08 08:54:37;;;;;;;3.37;0.60;;;24.20;45.90;;;;;;5039657;28;89780;-77
2022/04/08 08:57:05;;;;;;;0.43;0.43;;;24.10;45.80;;;;;;5040161;28;88552;-77
2022/04/08 08:59:34;;;;;;;0.20;0.20;;;24.00;45.80;;;;;;5038904;27;89646;-77
2022/04/08 09:02:02;;;;;;;1.80;0.60;;;24.00;45.80;;;;;;5040823;28;89811;-77
2022/04/08 09:04:30;;;;;;;1.53;0.40;;;23.90;45.80;;;;;;5039140;28;89127;-69
2022/04/08 09:06:59;;;;;;;0.43;0.43;;;23.80;45.80;;;;;;5038964;28;88638;-69
2022/04/08 09:09:31;;;;;;;0.50;0.30;;;23.80;45.80;;;;;;5036245;28;91002;-69
2022/04/08 09:12:11;;;;;;;4.43;0.60;;;23.70;45.80;;;;;;5038339;28;88922;-69
2022/04/08 09:14:39;;;;;;;2.23;0.87;;;23.60;45.80;;;;;;5041125;27;89020;-67
2022/04/08 09:17:07;;;;;;;2.10;0.33;;;23.60;45.80;;;;;;5039541;28;88748;-67
2022/04/08 09:19:35;;;;;;;1.73;0.60;;;23.50;45.80;;;;;;5044755;27;93726;-68
2022/04/08 09:22:03;;;;;;;1.30;0.60;;;23.50;45.80;;;;;;5050498;27;90196;-67
2022/04/08 09:24:33;;;;;;;2.83;0.80;;;23.20;45.60;;;;;;5074578;27;88902;-68
2022/04/08 09:27:01;;;;;;;2.60;0.47;;;23.40;45.80;;;;;;5041245;27;88447;-68
2022/04/08 09:29:31;;;;;;;0.70;0.43;;;23.30;45.70;;;;;;5046598;27;90049;-68
2022/04/08 09:32:24;;;;;;;2.50;0.67;;;23.30;45.70;;;;;;5035792;27;89582;-68
2022/04/08 09:34:52;;;;;;;0.70;0.50;;;23.30;45.80;;;;;;5035286;27;88698;-68
2022/04/08 09:37:20;;;;;;;3.40;0.70;;;23.30;45.80;;;;;;5036109;27;88807;-69
2022/04/08 09:39:57;;;;;;;1.13;0.60;;;23.20;45.70;;;;;;5036551;27;89981;-68
2022/04/08 09:42:25;;;;;;;2.17;1.00;;;23.10;45.60;;;;;;5039841;27;89891;-68
2022/04/08 09:44:53;;;;;;;3.07;0.97;;;23.10;45.70;;;;;;5040590;27;89717;-69
2022/04/08 09:47:21;;;;;;;1.63;1.00;;;23.10;45.70;;;;;;5042811;27;88548;-68
2022/04/08 09:49:49;;;;;;;3.37;1.90;;;23.10;45.70;;;;;;5037734;28;90762;-68
2022/04/08 09:52:17;;;;;;;3.77;1.57;;;23.10;45.70;;;;;;5043664;27;90143;-68
2022/04/08 09:54:45;;;;;;;4.30;1.70;;;23.10;45.70;;;;;;5042521;27;91478;-68
2022/04/08 09:57:19;;;;;;;2.60;1.70;;;23.00;45.60;;;;;;5040216;28;88605;-68
2022/04/08 09:59:48;;;;;;;2.93;1.97;;;23.00;45.60;;;;;;5041002;28;91055;-68
2022/04/08 10:02:22;;;;;;;3.33;2.60;;;23.00;45.60;;;;;;5037080;27;90039;-68
2022/04/08 10:05:05;;;;;;;4.57;2.13;;;23.00;45.60;;;;;;5036170;27;90178;-67
2022/04/08 10:07:33;;;;;;;3.90;1.80;;;23.00;45.50;;;;;;5039742;27;88548;-68
2022/04/08 10:10:03;;;;;;;3.23;2.27;;;23.00;45.50;;;;;;5036755;27;90676;-68
2022/04/08 10:12:35;;;;;;;3.80;2.13;;;22.90;45.40;;;;;;5033214;28;90147;-68
2022/04/08 10:15:06;;;;;;;6.63;2.20;;;22.90;45.40;;;;;;5036027;27;88704;-68
2022/04/08 10:17:34;;;;;;;2.67;2.07;;;22.90;45.40;;;;;;5036947;27;90767;-67
2022/04/08 10:20:16;;;;;;;3.10;2.17;;;22.90;45.40;;;;;;5039438;27;92478;-67
2022/04/08 10:22:44;;;;;;;2.97;2.33;;;22.90;45.40;;;;;;5041970;27;88820;-68
2022/04/08 10:25:16;;;;;;;3.80;2.23;;;22.90;45.30;;;;;;5036591;27;89451;-67
2022/04/08 10:27:45;;;;;;;2.70;2.00;;;22.80;45.20;;;;;;5031571;27;88745;-68
2022/04/08 10:30:15;;;;;;;2.80;2.07;;;22.80;45.20;;;;;;5037304;27;90027;-68
2022/04/08 10:32:44;;;;;;;4.37;2.07;;;22.80;45.20;;;;;;5036549;27;91882;-68
2022/04/08 10:35:17;;;;;;;3.47;2.37;;;22.80;45.20;;;;;;5039162;27;90175;-68
2022/04/08 10:37:55;;;;;;;2.90;1.97;;;22.80;45.20;;;;;;5037136;27;88600;-68
2022/04/08 10:40:29;;;;;;;3.17;1.87;;;22.80;45.20;;;;;;5038885;28;90669;-68
2022/04/08 10:43:00;;;;;;;5.33;2.10;;;22.80;45.20;;;;;;5042800;27;89913;-72
2022/04/08 10:45:29;;;;;;;2.43;2.13;;;22.80;45.20;;;;;;5040192;28;88758;-71
2022/04/08 10:48:00;;;;;;;4.07;2.30;;;22.70;45.20;;;;;;5039493;27;88645;-71
2022/04/08 10:50:29;;;;;;;3.67;2.13;;;22.70;45.80;;;;;;5039531;27;90909;-71
2022/04/08 10:53:05;;;;;;;8.27;2.80;;;22.70;45.20;;;;;;5039924;27;89967;-71
2022/04/08 10:55:33;;;;;;;3.17;2.23;;;22.70;45.20;;;;;;5040254;27;88957;-71
2022/04/08 10:58:02;;;;;;;7.60;2.03;;;22.70;45.20;;;;;;5044046;27;88814;-72
2022/04/08 11:00:39;;;;;;;4.23;1.80;;;22.70;45.20;;;;;;5040263;27;90617;-73
2022/04/08 11:03:10;;;;;;;4.77;1.67;;;22.70;45.20;;;;;;5037389;27;89590;-72
2022/04/08 11:05:38;;;;;;;2.77;2.10;;;22.70;45.30;;;;;;5037467;27;89069;-68
2022/04/08 11:08:07;;;;;;;3.63;1.63;;;22.70;45.30;;;;;;5038858;27;88541;-70
2022/04/08 11:10:35;;;;;;;2.33;1.53;;;22.60;45.10;;;;;;5036116;27;89725;-71
2022/04/08 11:13:04;;;;;;;3.53;1.63;;;22.60;45.80;;;;;;5039022;27;91114;-71
2022/04/08 11:15:32;;;;;;;5.57;2.20;;;22.60;45.10;;;;;;5039590;27;88575;-71
2022/04/08 11:18:01;;;;;;;8.23;2.23;;;22.60;45.10;;;;;;5038495;27;89385;-70
2022/04/08 11:20:29;;;;;;;6.70;3.13;;;22.60;45.10;;;;;;5041700;27;93588;-70
2022/04/08 11:22:58;;;;;;;4.10;2.47;;;22.60;45.10;;;;;;5047369;27;90104;-70
2022/04/08 11:25:27;;;;;;;7.57;2.90;;;22.60;45.10;;;;;;5041553;27;91640;-70
2022/04/08 11:27:59;;;;;;;6.67;3.30;;;22.50;45.00;;;;;;5039456;27;88543;-70
2022/04/08 11:30:29;;;;;;;7.00;3.57;;;22.50;45.10;;;;;;5036044;27;91028;-71
2022/04/08 11:32:57;;;;;;;13.13;4.50;;;22.60;45.10;;;;;;5034161;27;91661;-71
2022/04/08 11:35:28;;;;;;;14.03;4.57;;;22.60;45.20;;;;;;5030289;27;89123;-71
2022/04/08 11:37:56;;;;;;;8.93;4.43;;;22.60;45.30;;;;;;5025212;28;88410;-71
2022/04/08 11:40:24;;;;;;;21.33;5.90;;;22.70;45.40;;;;;;5032984;27;90615;-71
2022/04/08 11:42:55;;;;;;;14.27;5.10;;;22.70;45.40;;;;;;5038627;27;92058;-70
2022/04/08 11:45:23;;;;;;;10.23;5.37;;;22.70;45.50;;;;;;5039146;27;88352;-71
2022/04/08 11:47:53;;;;;;;12.07;5.20;;;22.70;45.50;;;;;;5038598;27;88736;-70
2022/04/08 11:50:24;;;;;;;14.27;4.47;;;22.70;45.60;;;;;;5032263;27;89465;-70
2022/04/08 11:52:56;;;;;;;14.20;4.97;;;22.70;45.60;;;;;;5029489;27;90080;-71
2022/04/08 11:55:30;;;;;;;7.23;4.30;;;22.80;45.70;;;;;;5044998;27;88938;-70
2022/04/08 11:57:58;;;;;;;14.37;5.70;;;22.80;45.70;;;;;;5042098;27;88597;-69
2022/04/08 12:00:27;;;;;;;9.37;4.17;;;22.80;45.70;;;;;;5041531;27;90923;-71
2022/04/08 12:02:58;;;;;;;11.93;5.43;;;22.80;45.70;;;;;;5036496;27;89075;-70
2022/04/08 12:05:29;;;;;;;15.17;5.40;;;22.80;45.70;;;;;;5055073;27;88541;-70
2022/04/08 12:08:12;;;;;;;14.43;6.43;;;22.80;45.70;;;;;;5040783;27;88592;-71
2022/04/08 12:10:43;;;;;;;11.10;5.80;;;22.80;45.60;;;;;;5036864;27;89431;-71
2022/04/08 12:13:15;;;;;;;16.87;7.63;;;22.80;45.70;;;;;;5038565;27;93404;-71
2022/04/08 12:15:47;;;;;;;18.97;9.13;;;22.80;45.70;;;;;;5035839;27;89217;-71
2022/04/08 12:18:22;;;;;;;28.97;11.80;;;22.80;45.70;;;;;;5037547;27;88755;-71
2022/04/08 12:20:53;;;;;;;24.37;12.87;;;22.80;45.70;;;;;;5035310;27;89934;-71
2022/04/08 12:23:22;;;;;;;32.20;13.80;;;22.80;45.70;;;;;;5039099;27;91477;-71
2022/04/08 12:25:52;;;;;;;32.70;16.20;;;22.80;45.60;;;;;;5040914;27;88587;-71
2022/04/08 12:28:22;;;;;;;30.80;15.50;;;22.80;45.60;;;;;;5039821;27;88842;-70
2022/04/08 12:30:52;;;;;;;39.80;16.70;;;22.80;45.60;;;;;;5038247;27;88526;-71
2022/04/08 12:33:22;;;;;;;34.30;17.80;;;22.70;45.50;;;;;;5040343;27;90134;-68
2022/04/08 12:35:49;;;;;;;32.27;16.73;;;22.70;45.50;;;;;;5037180;27;91864;-69
2022/04/08 12:38:20;;;;;;;35.87;18.57;;;22.70;45.50;;;;;;5034773;27;88638;-68
2022/04/08 12:40:48;;;;;;;33.23;17.27;;;22.70;45.50;;;;;;5038485;27;90547;-68
2022/04/08 12:43:16;;;;;;;36.13;19.77;;;22.70;45.50;;;;;;5040125;27;90132;-68
2022/04/08 12:45:44;;;;;;;28.97;17.30;;;22.70;45.40;;;;;;5039883;27;91532;-68
2022/04/08 12:48:12;;;;;;;37.77;17.53;;;22.70;45.40;;;;;;5041370;27;88559;-68
2022/04/08 12:50:42;;;;;;;36.17;19.13;;;22.70;45.40;;;;;;5045089;27;93267;-68
2022/04/08 12:53:10;;;;;;;35.00;17.13;;;22.70;45.40;;;;;;5040349;27;89381;-68
2022/04/08 12:55:38;;;;;;;31.47;18.17;;;22.70;46.10;;;;;;5046382;27;89050;-68